Time;durP1;ratioP1;P1;durP2;ratioP2;P2;SDS_P1;SDS_P2;PMS_P1;PMS_P2;Temp;Humidity;BMP_temperature;BMP_pressure;BME280_temperature;BME280_humidity;BME280_pressure;Samples;Min_cycle;Max_cycle;Signal;HPM_P1;HPM_P2
2021/08/17 00:00:32;;;;;;;11.03;7.45;;;;;;;18.67;76.34;98174.70;2277856;78;20935;-77
2021/08/17 00:03:34;;;;;;;11.08;7.28;;;;;;;18.51;76.07;98191.45;2257538;78;20908;-77
2021/08/17 00:06:34;;;;;;;11.22;6.30;;;;;;;18.35;77.24;98208.22;2277970;78;21272;-76
2021/08/17 00:09:35;;;;;;;71.87;52.05;;;;;;;18.13;76.70;98204.44;2277799;78;20967;-76
2021/08/17 00:12:35;;;;;;;10.95;8.93;;;;;;;17.95;76.67;98194.39;2277760;78;20901;-76
2021/08/17 00:15:36;;;;;;;12.80;6.05;;;;;;;17.81;76.46;98180.25;2277924;78;20936;-76
2021/08/17 00:18:37;;;;;;;14.10;6.78;;;;;;;17.67;76.11;98176.67;2277923;78;21328;-76
2021/08/17 00:21:37;;;;;;;9.70;6.53;;;;;;;17.53;76.75;98180.11;2277451;78;21445;-77
2021/08/17 00:24:38;;;;;;;13.80;7.08;;;;;;;17.35;77.50;98179.27;2277348;78;20928;-77
2021/08/17 00:27:38;;;;;;;15.32;6.92;;;;;;;17.18;78.91;98179.21;2277724;78;20924;-77
2021/08/17 00:30:39;;;;;;;12.53;7.50;;;;;;;16.95;81.34;98173.64;2277310;78;20945;-77
2021/08/17 00:33:39;;;;;;;17.75;8.80;;;;;;;16.95;81.34;98173.64;2277716;78;21273;-76
2021/08/17 00:36:40;;;;;;;11.70;7.15;;;;;;;16.88;82.36;98170.28;2277273;78;20955;-75
2021/08/17 00:39:41;;;;;;;12.15;7.03;;;;;;;16.95;81.36;98171.00;2277734;78;20908;-78
2021/08/17 00:42:41;;;;;;;11.90;6.85;;;;;;;16.91;81.40;98177.26;2277833;78;20877;-77
2021/08/17 00:45:42;;;;;;;11.88;7.10;;;;;;;16.73;82.37;98182.96;2277698;78;21304;-77
2021/08/17 00:48:43;;;;;;;15.38;7.35;;;;;;;16.59;83.02;98186.33;2277869;78;21000;-77
2021/08/17 00:51:43;;;;;;;9.78;8.00;;;;;;;16.54;83.06;98175.45;2277503;78;21356;-77
2021/08/17 00:54:44;;;;;;;13.43;7.87;;;;;;;16.49;82.44;98177.31;2277918;78;20929;-77
2021/08/17 00:57:44;;;;;;;13.20;8.08;;;;;;;16.46;83.46;98185.25;2277730;78;20917;-76
2021/08/17 01:00:45;;;;;;;25.30;16.37;;;;;;;16.42;84.47;98184.91;2277739;78;20939;-75
2021/08/17 01:03:45;;;;;;;50.80;39.05;;;;;;;16.77;84.17;98196.48;2277770;78;20904;-76
2021/08/17 01:06:46;;;;;;;13.35;7.50;;;;;;;17.31;83.13;98210.55;2277394;78;21360;-75
2021/08/17 01:09:46;;;;;;;15.65;9.63;;;;;;;17.37;80.99;98217.89;2277710;78;20924;-76
2021/08/17 01:12:47;;;;;;;11.90;6.35;;;;;;;17.07;81.84;98222.12;2277690;78;20877;-76
2021/08/17 01:15:47;;;;;;;11.60;7.00;;;;;;;17.03;80.98;98226.19;2277263;78;20924;-77
2021/08/17 01:18:48;;;;;;;12.80;6.58;;;;;;;16.65;81.67;98220.03;2277088;78;20916;-76
2021/08/17 01:21:48;;;;;;;10.60;6.37;;;;;;;16.44;82.68;98223.06;2277904;78;20908;-76
2021/08/17 01:24:49;;;;;;;11.78;6.83;;;;;;;16.43;82.80;98238.45;2277741;78;20913;-76
2021/08/17 01:27:49;;;;;;;12.78;7.03;;;;;;;16.97;83.11;98249.61;2277831;78;20912;-75
2021/08/17 01:30:50;;;;;;;9.85;6.55;;;;;;;17.07;81.77;98252.44;2277631;78;20929;-77
2021/08/17 01:33:50;;;;;;;12.30;6.53;;;;;;;16.91;82.48;98249.75;2277603;78;20885;-76
2021/08/17 01:36:51;;;;;;;12.82;6.62;;;;;;;17.24;81.17;98224.34;2277639;78;21332;-77
2021/08/17 01:39:51;;;;;;;10.43;7.00;;;;;;;17.10;81.18;98198.77;2277913;78;21308;-76
2021/08/17 01:42:52;;;;;;;12.07;6.78;;;;;;;16.64;82.42;98190.59;2277772;78;20869;-76
2021/08/17 01:45:52;;;;;;;13.03;6.72;;;;;;;16.32;83.14;98199.17;2277478;78;20889;-76
2021/08/17 01:48:53;;;;;;;14.85;7.03;;;;;;;16.21;83.76;98191.95;2277173;78;20952;-76
2021/08/17 01:51:53;;;;;;;10.35;6.20;;;;;;;16.15;83.06;98178.47;2277290;78;20941;-76
2021/08/17 01:54:54;;;;;;;11.25;6.45;;;;;;;16.64;85.57;98177.42;2277228;78;21396;-76
2021/08/17 01:57:54;;;;;;;12.05;6.35;;;;;;;17.37;84.62;98180.09;2277835;78;20908;-75
2021/08/17 02:00:55;;;;;;;10.48;6.70;;;;;;;18.04;81.45;98166.41;2277827;78;20874;-75
2021/08/17 02:03:55;;;;;;;15.60;6.33;;;;;;;17.99;80.51;98180.20;2277833;78;20905;-75
2021/08/17 02:06:56;;;;;;;14.63;8.23;;;;;;;18.55;81.51;98194.86;2277680;78;20887;-76
2021/08/17 02:09:56;;;;;;;9.65;7.28;;;;;;;19.41;79.27;98197.87;2277931;78;20912;-76
2021/08/17 02:12:57;;;;;;;21.75;13.62;;;;;;;19.64;77.47;98190.49;2277704;78;20909;-76
2021/08/17 02:16:00;;;;;;;257.90;219.07;;;;;;;19.63;75.51;98186.98;2277813;78;20936;-76
2021/08/17 02:19:00;;;;;;;44.60;33.53;;;;;;;19.95;74.98;98189.84;2277601;78;20931;-77
2021/08/17 02:25:03;;;;;;;21.48;15.98;;;;;;;20.24;72.22;98191.88;2255991;78;21003;-77
2021/08/17 02:28:04;;;;;;;54.20;41.73;;;;;;;20.14;70.20;98184.73;2277692;78;20940;-77
2021/08/17 02:31:04;;;;;;;17.80;12.55;;;;;;;20.06;72.42;98184.15;2277305;78;21363;-76
2021/08/17 02:34:05;;;;;;;31.00;23.20;;;;;;;20.36;69.70;98190.09;2277408;78;20900;-77
2021/08/17 02:37:06;;;;;;;18.65;11.22;;;;;;;20.14;71.08;98179.89;2277153;78;20980;-77
2021/08/17 02:40:06;;;;;;;645.60;574.00;;;;;;;20.48;70.09;98186.14;2277126;78;20959;-77
2021/08/17 02:43:07;;;;;;;266.33;237.05;;;;;;;20.49;70.06;98185.22;2277269;78;20920;-77
2021/08/17 02:46:08;;;;;;;98.20;85.35;;;;;;;20.77;69.25;98189.84;2277643;78;20952;-77
2021/08/17 02:49:09;;;;;;;20.50;15.80;;;;;;;20.83;68.60;98178.16;2277819;78;21268;-77
2021/08/17 02:52:10;;;;;;;7.42;5.55;;;;;;;20.49;66.87;98179.45;2277700;78;20984;-77
2021/08/17 02:55:10;;;;;;;24.40;17.37;;;;;;;19.31;67.68;98168.66;2277456;78;20995;-76
2021/08/17 02:58:11;;;;;;;12.50;7.55;;;;;;;18.45;70.70;98177.09;2277734;78;20972;-77
2021/08/17 03:01:12;;;;;;;10.85;5.67;;;;;;;17.98;71.51;98175.82;2277605;78;20955;-76
2021/08/17 03:04:12;;;;;;;11.40;5.12;;;;;;;17.53;72.58;98166.05;2277179;78;20901;-76
2021/08/17 03:07:13;;;;;;;8.28;4.95;;;;;;;17.70;75.16;98174.41;2277075;78;21304;-76
2021/08/17 03:10:13;;;;;;;8.05;6.25;;;;;;;18.18;74.23;98160.72;2277769;78;20933;-75
2021/08/17 03:13:14;;;;;;;9.33;5.28;;;;;;;18.15;74.97;98171.78;2277664;78;20921;-76
2021/08/17 03:16:14;;;;;;;7.83;5.10;;;;;;;18.75;73.35;98183.25;2277640;78;20917;-76
2021/08/17 03:19:15;;;;;;;6.58;5.22;;;;;;;18.92;73.81;98180.94;2277827;78;20901;-76
2021/08/17 03:22:15;;;;;;;13.35;6.67;;;;;;;19.61;73.00;98189.27;2277627;78;20881;-77
2021/08/17 03:25:16;;;;;;;11.70;7.87;;;;;;;19.98;71.69;98191.52;2277430;78;20988;-76
2021/08/17 03:28:16;;;;;;;12.95;7.87;;;;;;;20.34;70.58;98198.10;2277257;78;20956;-77
2021/08/17 03:31:17;;;;;;;7.33;6.03;;;;;;;20.11;69.91;98219.75;2277694;78;21305;-77
2021/08/17 03:34:17;;;;;;;8.23;5.00;;;;;;;20.49;69.89;98235.13;2277932;78;20917;-76
2021/08/17 03:37:18;;;;;;;9.65;5.37;;;;;;;20.56;68.88;98227.80;2277675;78;20987;-75
2021/08/17 03:40:19;;;;;;;12.88;7.83;;;;;;;20.20;67.68;98214.11;2277520;78;21099;-75
2021/08/17 03:43:20;;;;;;;8.83;6.75;;;;;;;19.55;67.98;98211.98;2277570;78;21328;-76
2021/08/17 03:46:20;;;;;;;13.35;6.53;;;;;;;18.54;69.98;98219.56;2277607;78;21260;-77
2021/08/17 03:49:20;;;;;;;11.83;6.35;;;;;;;18.26;71.68;98233.58;2276818;78;20950;-77
2021/08/17 03:52:21;;;;;;;10.05;8.63;;;;;;;18.01;72.62;98234.70;2277018;78;20925;-76
2021/08/17 03:55:21;;;;;;;10.85;9.33;;;;;;;17.91;72.99;98244.23;2276834;78;20960;-76
2021/08/17 03:58:22;;;;;;;14.47;10.00;;;;;;;18.21;74.15;98255.30;2277964;78;21213;-76
2021/08/17 04:01:23;;;;;;;125.50;92.37;;;;;;;18.26;72.95;98250.75;2277515;78;20973;-78
2021/08/17 04:04:23;;;;;;;94.75;75.17;;;;;;;18.21;73.26;98253.98;2277730;78;20944;-76
2021/08/17 04:07:27;;;;;;;18.95;15.48;;;;;;;18.12;73.52;98254.20;2277847;78;20901;-77
2021/08/17 04:10:28;;;;;;;12.68;8.23;;;;;;;18.33;73.59;98258.05;2277600;78;20995;-75
2021/08/17 04:13:28;;;;;;;11.70;8.65;;;;;;;19.39;72.67;98285.71;2277599;78;21256;-76
2021/08/17 04:16:29;;;;;;;10.95;7.35;;;;;;;19.39;72.67;98285.71;2277297;78;20889;-76
2021/08/17 04:19:29;;;;;;;14.60;7.47;;;;;;;19.30;71.50;98285.55;2277799;78;20960;-78
2021/08/17 04:22:30;;;;;;;595.88;521.75;;;;;;;19.42;71.01;98277.67;2277786;78;20869;-79
2021/08/17 04:25:30;;;;;;;566.27;480.65;;;;;;;19.44;70.78;98281.13;2277610;78;21396;-79
2021/08/17 04:28:32;;;;;;;165.18;133.70;;;;;;;19.35;70.39;98284.08;2277718;78;20923;-78
2021/08/17 04:31:33;;;;;;;34.58;24.05;;;;;;;19.29;70.15;98282.95;2277093;78;21041;-80
2021/08/17 04:34:35;;;;;;;12.35;7.67;;;;;;;19.11;70.07;98298.08;2256752;78;20947;-79
2021/08/17 04:37:36;;;;;;;10.50;5.22;;;;;;;18.49;69.72;98295.47;2277386;78;20984;-79
2021/08/17 04:40:36;;;;;;;9.05;5.17;;;;;;;17.75;71.10;98307.99;2277115;78;21291;-80
2021/08/17 04:43:37;;;;;;;9.35;5.37;;;;;;;17.33;72.19;98315.58;2277361;78;20916;-77
2021/08/17 04:46:37;;;;;;;7.85;5.17;;;;;;;16.97;74.55;98333.97;2277151;78;20892;-79
2021/08/17 04:49:38;;;;;;;9.48;5.20;;;;;;;16.65;76.91;98342.98;2277642;78;21323;-79
2021/08/17 04:52:38;;;;;;;10.32;6.30;;;;;;;16.42;76.48;98342.95;2276793;78;20959;-76
2021/08/17 04:55:39;;;;;;;11.05;6.67;;;;;;;16.32;77.05;98356.33;2276585;78;20979;-79
2021/08/17 04:58:39;;;;;;;13.48;10.60;;;;;;;16.20;79.04;98366.64;2277250;78;20943;-78
2021/08/17 05:01:40;;;;;;;16.60;10.32;;;;;;;16.07;78.67;98368.63;2277497;78;20947;-77
2021/08/17 05:04:40;;;;;;;11.22;7.00;;;;;;;16.00;79.78;98384.11;2276803;78;20959;-78
2021/08/17 05:07:41;;;;;;;10.58;6.55;;;;;;;15.95;79.45;98383.32;2277312;78;21328;-79
2021/08/17 05:10:42;;;;;;;6.17;4.97;;;;;;;15.91;80.36;98381.19;2276915;78;21343;-78
2021/08/17 05:13:42;;;;;;;10.10;7.20;;;;;;;15.86;80.56;98392.23;2276701;78;20976;-78
2021/08/17 05:16:43;;;;;;;9.73;5.20;;;;;;;15.77;79.98;98384.50;2276758;78;20948;-78
2021/08/17 05:19:43;;;;;;;11.48;4.72;;;;;;;15.79;79.64;98381.39;2276746;78;21344;-79
2021/08/17 05:22:43;;;;;;;6.20;3.85;;;;;;;15.81;79.77;98387.95;2277334;78;20964;-79
2021/08/17 05:25:44;;;;;;;6.47;4.30;;;;;;;15.80;80.12;98383.13;2276435;78;20984;-79
2021/08/17 05:28:44;;;;;;;7.03;4.15;;;;;;;15.72;80.73;98385.02;2277099;78;20928;-81
2021/08/17 05:31:45;;;;;;;6.42;4.72;;;;;;;15.58;80.61;98385.64;2277219;78;20964;-82
2021/08/17 05:34:46;;;;;;;8.13;3.85;;;;;;;15.62;81.16;98397.03;2277966;78;20908;-80
2021/08/17 05:37:46;;;;;;;4.45;3.80;;;;;;;15.58;80.37;98400.98;2278536;78;21363;-80
2021/08/17 05:40:47;;;;;;;4.75;3.50;;;;;;;15.51;80.36;98397.12;2277867;78;21307;-79
2021/08/17 05:43:47;;;;;;;7.97;3.65;;;;;;;15.40;80.45;98413.06;2278127;78;20881;-79
2021/08/17 05:46:48;;;;;;;3.83;3.25;;;;;;;15.36;80.74;98417.94;2277079;78;20889;-79
2021/08/17 05:49:48;;;;;;;5.15;3.40;;;;;;;15.27;80.68;98417.63;2277708;78;20948;-79
2021/08/17 05:52:49;;;;;;;6.33;3.25;;;;;;;15.18;81.07;98419.06;2277922;78;20928;-79
2021/08/17 05:55:49;;;;;;;4.92;3.25;;;;;;;15.06;81.06;98417.91;2276567;78;21332;-79
2021/08/17 05:58:50;;;;;;;3.52;3.00;;;;;;;14.99;81.22;98416.25;2277901;78;21608;-79
2021/08/17 06:01:50;;;;;;;5.37;3.55;;;;;;;14.97;81.28;98419.34;2278022;78;20913;-79
2021/08/17 06:04:51;;;;;;;6.95;3.40;;;;;;;14.93;81.62;98426.84;2278105;78;20881;-79
2021/08/17 06:07:51;;;;;;;3.37;3.02;;;;;;;14.88;81.38;98432.59;2277805;78;20979;-80
2021/08/17 06:10:52;;;;;;;5.53;3.00;;;;;;;14.83;81.94;98437.03;2276977;78;21320;-81
2021/08/17 06:13:53;;;;;;;4.92;3.40;;;;;;;14.77;81.66;98439.28;2276424;78;21392;-79
2021/08/17 06:16:53;;;;;;;4.10;2.95;;;;;;;14.70;82.70;98434.09;2277427;78;21603;-80
2021/08/17 06:19:54;;;;;;;5.20;3.30;;;;;;;14.63;82.84;98442.03;2277418;78;21348;-80
2021/08/17 06:22:54;;;;;;;5.93;3.40;;;;;;;14.52;82.55;98436.02;2278128;78;20940;-80
2021/08/17 06:25:55;;;;;;;3.83;3.27;;;;;;;14.51;82.12;98449.17;2278025;78;20976;-79
2021/08/17 06:28:55;;;;;;;4.72;3.30;;;;;;;14.53;82.44;98448.27;2277990;78;20917;-82
2021/08/17 06:31:56;;;;;;;4.15;3.22;;;;;;;14.48;82.09;98439.57;2276504;78;20960;-80
2021/08/17 06:34:57;;;;;;;7.35;3.25;;;;;;;14.37;81.77;98442.71;2276240;78;21398;-80
2021/08/17 06:37:57;;;;;;;4.42;2.98;;;;;;;14.30;81.67;98451.53;2276685;78;21630;-81
2021/08/17 06:40:57;;;;;;;5.35;3.62;;;;;;;14.25;81.90;98448.95;2276361;78;21606;-80
2021/08/17 06:43:58;;;;;;;5.47;3.47;;;;;;;14.26;81.58;98455.07;2276711;78;20920;-81
2021/08/17 06:46:58;;;;;;;7.22;5.15;;;;;;;14.26;81.37;98459.88;2276574;78;20908;-80
2021/08/17 06:49:59;;;;;;;8.30;4.25;;;;;;;14.25;81.29;98459.45;2277451;78;21315;-82
2021/08/17 06:52:59;;;;;;;5.00;3.50;;;;;;;14.22;81.15;98470.42;2277408;78;21268;-81
2021/08/17 06:56:00;;;;;;;8.50;3.50;;;;;;;14.32;80.67;98472.95;2277293;78;20983;-81
2021/08/17 06:59:00;;;;;;;6.85;3.35;;;;;;;14.43;80.10;98472.02;2277406;78;20920;-81
2021/08/17 07:02:01;;;;;;;7.58;4.22;;;;;;;14.51;80.17;98471.50;2276890;78;20897;-83
2021/08/17 07:05:01;;;;;;;7.08;3.52;;;;;;;14.54;79.08;98476.72;2277850;78;20897;-82
2021/08/17 07:08:02;;;;;;;8.38;3.67;;;;;;;14.54;78.81;98481.53;2277389;78;20916;-82
2021/08/17 07:11:03;;;;;;;8.13;3.30;;;;;;;14.51;77.38;98480.69;2277323;78;21390;-80
2021/08/17 07:14:03;;;;;;;6.42;3.20;;;;;;;14.51;78.14;98475.44;2277123;78;20936;-84
2021/08/17 07:17:03;;;;;;;7.43;4.00;;;;;;;14.55;77.61;98486.34;2277871;78;20952;-83
2021/08/17 07:20:04;;;;;;;7.58;3.33;;;;;;;14.59;77.18;98486.73;2278031;78;20913;-81
2021/08/17 07:23:05;;;;;;;8.88;3.30;;;;;;;14.64;77.60;98495.44;2277536;78;21355;-80
2021/08/17 07:26:06;;;;;;;5.75;3.62;;;;;;;14.73;77.73;98493.16;2277446;78;21390;-82
2021/08/17 07:29:06;;;;;;;11.68;3.30;;;;;;;14.76;77.23;98501.92;2277885;78;21344;-84
2021/08/17 07:32:07;;;;;;;8.55;3.72;;;;;;;14.75;77.23;98512.44;2277944;78;20988;-81
2021/08/17 07:35:08;;;;;;;8.00;4.10;;;;;;;14.75;76.83;98515.94;2277234;78;20930;-79
2021/08/17 07:38:09;;;;;;;7.03;3.65;;;;;;;14.74;76.84;98518.55;2276662;78;20968;-83
2021/08/17 07:41:12;;;;;;;9.15;4.25;;;;;;;14.76;76.26;98522.94;2255781;78;20916;-80
2021/08/17 07:44:13;;;;;;;4.62;3.20;;;;;;;14.79;76.58;98527.29;2276852;78;20944;-80
2021/08/17 07:47:13;;;;;;;5.62;3.40;;;;;;;14.92;75.56;98531.53;2277358;78;20925;-80
2021/08/17 07:50:14;;;;;;;5.80;3.45;;;;;;;15.01;74.50;98527.48;2277296;78;20990;-81
2021/08/17 07:53:14;;;;;;;7.08;3.22;;;;;;;15.06;73.74;98527.44;2277043;78;20952;-82
2021/08/17 07:56:15;;;;;;;6.47;2.90;;;;;;;15.09;73.32;98530.03;2277094;78;21003;-82
2021/08/17 07:59:16;;;;;;;7.37;3.50;;;;;;;15.25;73.06;98524.58;2276758;78;20897;-80
2021/08/17 08:02:16;;;;;;;14.43;3.72;;;;;;;15.49;73.05;98527.80;2276676;78;20892;-80
2021/08/17 08:08:19;;;;;;;7.33;3.12;;;;;;;15.66;72.06;98528.51;2257146;78;21249;-81
2021/08/17 08:11:20;;;;;;;8.18;3.37;;;;;;;15.79;71.08;98536.66;2277639;78;21073;-82
2021/08/17 08:14:20;;;;;;;8.75;3.95;;;;;;;15.91;70.60;98538.25;2277667;78;20952;-80
2021/08/17 08:17:21;;;;;;;6.47;3.58;;;;;;;15.97;70.48;98542.55;2277816;78;20924;-82
2021/08/17 08:20:22;;;;;;;17.42;3.85;;;;;;;15.89;70.09;98540.03;2277626;78;20944;-79
2021/08/17 08:23:22;;;;;;;5.03;3.57;;;;;;;15.89;70.09;98540.03;2277345;78;20925;-82
2021/08/17 08:26:23;;;;;;;4.28;3.25;;;;;;;15.88;69.87;98544.42;2277372;78;21347;-81
2021/08/17 08:29:23;;;;;;;5.75;3.83;;;;;;;15.92;69.42;98547.44;2277344;78;20992;-81
2021/08/17 08:32:24;;;;;;;12.78;3.37;;;;;;;15.96;69.53;98552.66;2279191;77;20940;-81
2021/08/17 08:35:24;;;;;;;6.97;3.20;;;;;;;16.03;69.19;98558.25;2280787;77;20920;-81
2021/08/17 08:38:24;;;;;;;11.10;3.30;;;;;;;16.07;68.52;98556.88;2280737;77;20920;-82
2021/08/17 08:41:25;;;;;;;6.67;3.00;;;;;;;16.13;67.92;98553.28;2281080;77;21283;-83
2021/08/17 08:44:26;;;;;;;8.00;3.65;;;;;;;16.45;66.73;98547.05;2280708;78;20904;-82
2021/08/17 08:47:26;;;;;;;8.70;3.65;;;;;;;16.81;66.69;98552.21;2281236;77;20999;-84
2021/08/17 08:50:28;;;;;;;8.08;3.75;;;;;;;17.13;65.19;98562.16;2280770;77;20932;-81
2021/08/17 08:53:29;;;;;;;5.47;3.10;;;;;;;17.44;64.66;98562.91;2280768;78;20917;-83
2021/08/17 08:56:29;;;;;;;7.60;2.80;;;;;;;17.63;63.30;98560.32;2280846;77;20944;-83
2021/08/17 08:59:30;;;;;;;6.62;2.62;;;;;;;17.54;62.36;98563.15;2280720;78;20915;-81
2021/08/17 09:02:30;;;;;;;7.80;3.10;;;;;;;17.44;62.19;98578.75;2281165;77;20916;-81
2021/08/17 09:05:31;;;;;;;5.25;3.05;;;;;;;17.27;61.89;98590.05;2281270;78;21268;-82
2021/08/17 09:08:33;;;;;;;12.45;3.20;;;;;;;17.26;62.72;98593.58;2281659;77;21331;-83
2021/08/17 09:11:33;;;;;;;5.35;3.22;;;;;;;17.19;62.33;98591.06;2280929;78;20988;-80
2021/08/17 09:14:34;;;;;;;3.60;2.75;;;;;;;17.27;62.15;98590.05;2281110;77;20913;-81
2021/08/17 09:17:34;;;;;;;5.00;2.90;;;;;;;17.31;60.22;98599.19;2280936;77;20917;-83
2021/08/17 09:20:36;;;;;;;6.45;3.47;;;;;;;17.34;60.67;98606.17;2281138;77;21327;-83
2021/08/17 09:23:37;;;;;;;5.08;3.08;;;;;;;17.29;62.33;98605.39;2281453;78;20869;-83
2021/08/17 09:26:38;;;;;;;7.10;3.10;;;;;;;17.38;61.36;98599.53;2281230;77;21019;-82
2021/08/17 09:29:38;;;;;;;8.15;3.65;;;;;;;17.43;60.31;98617.45;2281366;77;20921;-82
2021/08/17 09:32:39;;;;;;;7.78;3.30;;;;;;;17.55;61.36;98612.39;2279313;77;20933;-83
2021/08/17 09:35:39;;;;;;;9.80;3.25;;;;;;;17.61;60.33;98613.59;2277582;78;20913;-82
2021/08/17 09:38:40;;;;;;;7.47;3.50;;;;;;;17.60;61.06;98609.20;2256626;78;21579;-82
2021/08/17 09:41:40;;;;;;;8.65;3.22;;;;;;;17.64;60.23;98595.05;2276996;78;20919;-82
2021/08/17 09:44:41;;;;;;;5.03;2.83;;;;;;;17.90;60.31;98605.09;2276347;78;20921;-82
2021/08/17 09:47:41;;;;;;;6.15;3.50;;;;;;;18.21;59.94;98600.04;2276642;78;21252;-82
2021/08/17 09:50:42;;;;;;;8.50;3.17;;;;;;;18.49;59.12;98615.25;2276365;78;21642;-82
2021/08/17 09:53:43;;;;;;;5.90;3.12;;;;;;;18.63;59.01;98605.25;2277310;78;20921;-83
2021/08/17 09:56:43;;;;;;;9.88;3.17;;;;;;;18.46;56.90;98627.64;2275845;78;21063;-80
2021/08/17 09:59:44;;;;;;;5.80;2.87;;;;;;;18.26;57.79;98613.14;2276007;78;20893;-77
2021/08/17 10:02:44;;;;;;;9.65;2.60;;;;;;;18.26;58.48;98614.47;2277214;78;21311;-82
2021/08/17 10:05:45;;;;;;;7.12;2.92;;;;;;;18.27;58.41;98615.75;2277859;78;20913;-82
2021/08/17 10:08:46;;;;;;;13.93;2.85;;;;;;;18.43;57.12;98622.88;2277233;78;20916;-85
2021/08/17 10:11:46;;;;;;;6.58;3.22;;;;;;;18.83;57.10;98616.66;2277433;78;20936;-82
2021/08/17 10:14:47;;;;;;;3.33;2.70;;;;;;;18.88;56.94;98620.92;2277148;78;20881;-82
2021/08/17 10:17:47;;;;;;;3.25;2.50;;;;;;;18.50;56.68;98631.08;2276606;78;20983;-82
2021/08/17 10:20:48;;;;;;;7.25;3.42;;;;;;;18.05;58.08;98643.52;2277648;78;20928;-82
2021/08/17 10:23:48;;;;;;;6.10;3.52;;;;;;;17.68;58.39;98642.95;2277314;78;20964;-82
2021/08/17 10:26:49;;;;;;;7.60;3.50;;;;;;;17.36;59.69;98652.77;2277377;78;20949;-82
2021/08/17 10:29:49;;;;;;;6.80;3.65;;;;;;;17.19;60.38;98645.13;2277039;78;20917;-83
2021/08/17 10:32:50;;;;;;;8.98;3.30;;;;;;;17.68;60.23;98646.04;2276183;78;21345;-83
2021/08/17 10:35:50;;;;;;;4.12;2.58;;;;;;;18.29;58.79;98646.10;2276740;78;20937;-81
2021/08/17 10:38:51;;;;;;;4.03;2.85;;;;;;;18.71;56.88;98642.50;2276853;78;20916;-84
2021/08/17 10:41:52;;;;;;;12.03;2.58;;;;;;;18.73;55.22;98655.68;2276438;78;21021;-82
2021/08/17 10:44:53;;;;;;;5.92;3.20;;;;;;;18.50;56.60;98648.26;2276815;78;20933;-81
2021/08/17 10:47:54;;;;;;;11.40;3.00;;;;;;;18.37;56.31;98650.31;2277261;78;20948;-83
2021/08/17 10:50:54;;;;;;;5.90;3.20;;;;;;;18.32;56.78;98667.17;2277250;78;20991;-82
2021/08/17 10:53:55;;;;;;;4.03;3.10;;;;;;;18.32;56.79;98662.76;2277578;78;20920;-83
2021/08/17 10:56:55;;;;;;;6.58;2.90;;;;;;;18.48;56.64;98669.02;2277422;78;20952;-82
2021/08/17 10:59:56;;;;;;;5.78;2.60;;;;;;;18.60;55.71;98668.28;2277195;78;21288;-82
2021/08/17 11:02:57;;;;;;;6.47;2.80;;;;;;;18.81;55.08;98655.05;2278047;78;20900;-84
2021/08/17 11:05:58;;;;;;;4.33;2.67;;;;;;;18.95;54.96;98678.05;2277799;78;20999;-81
2021/08/17 11:08:58;;;;;;;5.17;2.72;;;;;;;18.81;53.93;98670.91;2278166;78;20920;-84
2021/08/17 11:11:59;;;;;;;9.83;2.92;;;;;;;18.82;53.63;98668.68;2277606;78;20928;-82
2021/08/17 11:15:00;;;;;;;5.97;2.85;;;;;;;18.90;53.66;98669.81;2277586;78;20913;-80
2021/08/17 11:18:00;;;;;;;5.30;2.50;;;;;;;19.27;52.64;98661.86;2277983;78;21329;-81
2021/08/17 11:21:01;;;;;;;5.15;2.92;;;;;;;19.27;53.95;98661.86;2277960;78;21295;-81
2021/08/17 11:24:02;;;;;;;6.10;3.35;;;;;;;19.17;54.10;98665.19;2277874;78;21249;-82
2021/08/17 11:27:02;;;;;;;5.17;2.95;;;;;;;19.05;54.30;98665.02;2245736;78;21046;-82
2021/08/17 11:30:03;;;;;;;7.33;2.60;;;;;;;19.15;52.90;98675.40;2261234;78;20966;-81
2021/08/17 11:33:04;;;;;;;7.62;3.20;;;;;;;19.35;52.83;98673.11;2272004;78;20999;-81
2021/08/17 11:36:04;;;;;;;4.30;2.80;;;;;;;19.78;52.11;98671.98;2281527;78;20916;-79
2021/08/17 11:39:05;;;;;;;7.58;2.80;;;;;;;20.25;49.88;98679.92;2281085;77;20932;-82
2021/08/17 11:42:05;;;;;;;3.92;2.70;;;;;;;20.51;49.97;98668.55;2280687;77;20917;-81
2021/08/17 11:45:06;;;;;;;5.10;2.58;;;;;;;20.83;48.84;98673.74;2280822;77;20920;-80
2021/08/17 11:48:06;;;;;;;3.60;2.30;;;;;;;21.18;48.27;98661.09;2280896;78;20919;-82
2021/08/17 11:51:09;;;;;;;5.92;2.52;;;;;;;21.01;47.94;98670.95;2280637;78;20952;-81
2021/08/17 11:54:09;;;;;;;4.20;2.20;;;;;;;20.83;48.53;98675.07;2281122;78;20999;-80
2021/08/17 11:57:10;;;;;;;5.33;2.37;;;;;;;20.72;47.87;98684.25;2280296;78;20999;-81
2021/08/17 12:00:10;;;;;;;5.78;2.62;;;;;;;20.55;48.14;98679.48;2279962;78;20960;-81
2021/08/17 12:03:11;;;;;;;5.78;2.75;;;;;;;20.39;48.31;98692.76;2281029;78;21324;-81
2021/08/17 12:06:11;;;;;;;3.95;2.60;;;;;;;20.32;50.03;98684.12;2280804;78;21292;-81
2021/08/17 12:09:12;;;;;;;3.87;2.70;;;;;;;20.10;50.00;98690.97;2281381;78;20936;-81
2021/08/17 12:12:13;;;;;;;5.37;2.67;;;;;;;19.80;49.45;98696.64;2281682;78;21014;-80
2021/08/17 12:15:13;;;;;;;7.33;2.72;;;;;;;19.62;50.59;98697.56;2281370;77;20928;-80
2021/08/17 12:18:14;;;;;;;4.85;2.60;;;;;;;19.55;51.11;98693.79;2281880;77;20924;-82
2021/08/17 12:21:14;;;;;;;6.83;2.95;;;;;;;19.53;50.71;98701.77;2281581;77;20916;-79
2021/08/17 12:24:15;;;;;;;6.42;2.72;;;;;;;19.60;51.30;98695.41;2282116;77;21315;-81
2021/08/17 12:30:18;;;;;;;6.78;2.87;;;;;;;19.60;51.69;98694.08;2260940;78;20972;-82
2021/08/17 12:33:18;;;;;;;6.92;3.22;;;;;;;19.73;51.96;98698.59;2281105;77;20979;-82
2021/08/17 12:36:19;;;;;;;7.50;2.98;;;;;;;19.83;51.07;98686.83;2281119;78;20908;-81
2021/08/17 12:39:20;;;;;;;7.50;2.90;;;;;;;19.77;51.16;98689.65;2281060;77;20941;-81
2021/08/17 12:42:20;;;;;;;7.92;3.02;;;;;;;19.48;51.72;98690.86;2282164;78;20940;-81
2021/08/17 12:45:21;;;;;;;9.03;3.10;;;;;;;19.24;51.89;98689.27;2281330;77;20948;-81
2021/08/17 12:48:21;;;;;;;7.10;3.02;;;;;;;19.11;52.62;98684.32;2280647;77;20939;-80
2021/08/17 12:51:22;;;;;;;7.47;2.80;;;;;;;19.10;52.39;98683.45;2281548;77;20952;-81
2021/08/17 12:54:22;;;;;;;5.37;3.00;;;;;;;19.27;52.41;98680.38;2280493;77;20992;-81
2021/08/17 12:57:23;;;;;;;5.85;3.05;;;;;;;19.55;52.35;98684.52;2279983;77;20991;-81
2021/08/17 13:00:23;;;;;;;4.83;2.77;;;;;;;19.76;51.98;98688.37;2280359;77;21414;-78
2021/08/17 13:03:24;;;;;;;4.95;2.85;;;;;;;19.88;51.55;98678.75;2280508;77;20905;-81
2021/08/17 13:06:24;;;;;;;6.05;3.00;;;;;;;19.71;51.62;98681.87;2280765;77;20912;-80
2021/08/17 13:09:25;;;;;;;3.52;2.20;;;;;;;19.62;51.87;98681.67;2281568;77;20932;-82
2021/08/17 13:12:25;;;;;;;7.15;2.90;;;;;;;19.83;50.54;98685.97;2280986;77;20991;-80
2021/08/17 13:15:26;;;;;;;8.08;2.30;;;;;;;20.13;50.95;98689.09;2280747;77;20940;-82
2021/08/17 13:18:26;;;;;;;4.95;2.55;;;;;;;20.42;48.98;98692.70;2281091;77;20897;-81
2021/08/17 13:21:27;;;;;;;3.35;1.72;;;;;;;20.42;49.53;98692.24;2281132;77;20954;-81
2021/08/17 13:24:27;;;;;;;5.80;2.62;;;;;;;20.52;48.55;98695.48;2281176;77;21284;-82
2021/08/17 13:27:29;;;;;;;5.25;2.50;;;;;;;20.32;49.69;98691.61;2281173;78;20996;-82
2021/08/17 13:30:31;;;;;;;7.10;2.20;;;;;;;20.18;50.35;98693.80;2281190;78;21036;-80
2021/08/17 13:33:31;;;;;;;5.80;2.20;;;;;;;20.02;49.77;98697.81;2286702;77;20956;-82
2021/08/17 13:36:32;;;;;;;4.17;2.27;;;;;;;19.73;49.90;98698.14;2292477;78;21276;-81
2021/08/17 13:39:33;;;;;;;4.22;2.33;;;;;;;19.45;49.69;98700.20;2289299;78;21339;-83
2021/08/17 13:42:33;;;;;;;9.58;2.50;;;;;;;19.22;50.55;98706.95;2277518;78;20946;-82
2021/08/17 13:45:34;;;;;;;4.65;2.50;;;;;;;19.02;51.36;98706.55;2277432;78;20955;-84
2021/08/17 13:48:34;;;;;;;8.18;2.60;;;;;;;19.18;51.68;98717.66;2277419;78;20914;-83
2021/08/17 13:51:35;;;;;;;3.58;2.40;;;;;;;19.39;51.62;98719.30;2277523;78;20976;-83
2021/08/17 13:54:35;;;;;;;10.35;2.83;;;;;;;19.58;50.74;98721.05;2277854;78;20965;-85
2021/08/17 13:57:36;;;;;;;3.58;2.00;;;;;;;19.68;50.53;98726.52;2277352;78;20980;-83
2021/08/17 14:00:36;;;;;;;3.90;2.15;;;;;;;19.93;50.68;98720.09;2278402;78;20873;-83
2021/08/17 14:03:39;;;;;;;4.90;2.10;;;;;;;20.07;49.86;98719.75;2278235;78;20940;-82
2021/08/17 14:06:42;;;;;;;5.53;2.37;;;;;;;20.28;49.80;98725.75;2278142;78;21016;-82
2021/08/17 14:09:42;;;;;;;5.00;2.40;;;;;;;20.29;48.24;98719.53;2277970;78;20969;-83
2021/08/17 14:12:42;;;;;;;3.50;2.22;;;;;;;20.25;48.46;98723.19;2278008;78;20912;-84